Decoded Metar for LFMP (Perpignan in FRANCE) (IATA:PGF) | Meteo·Mobile Aviation Weather
aviador You're here:

LFMP Decoded Metar

Perpignan in FRANCE
Report Time2018-08-21 16:00:00
UTC Time2018-08-21 16:07:34
Flight Rules vfr VFR
Wind130° at 05 kt
W.Decomp.*RWY 13: 5.0 kt HW -0 kt LCW
RWY 15: 4.7 kt HW 1.7 kt LCW
W.Rank130° ranks 13
Current wind is below 130° avg. (8.0)
Visibility9999 m
Phenomena:N/A
Clouds:N/A
Expected CloudBase > 6,400 ft AGL from Temp-Dew spread
CeilingNone
Temp31°C (ISA +16)
Dew Point15°C (38% RH)
Heat Index30.6°C
AAT30.8°C
QNH1014 hPa
Density Alt2,218 ft
Elevation157 ft
Report Wrong Elevation
Raw Report
METAR LFMP 211600Z AUTO 13005KT 100V170 CAVOK 31/15 Q1014 NOSIG=

Extra information for LFMP:More info

Metar Taf Metar & Taf Last 4 Metars F.Rules Stats Wind Profile Meteogram Temp Stats Airport Information Weather charts Add Link Nearby VenuesMetar ALERT Operation Metar Decoded Social comments